Time,TemperatureF,DewpointF,PressureIn,WindDirection,WindDirectionDegrees,WindSpeedMPH,WindSpeedGustMPH,Humidity,HourlyPrecipIn,Conditions,Clouds,dailyrainin,SoftwareType,DateUTC
2013-10-16 00:01:00,81.3,76.0,29.91,NE,45,1.1,-999.0,84,-99.99,,,0.00,Acu-Link.com,2013-10-16 04:01:00,
2013-10-16 00:16:00,81.3,76.0,29.90,ENE,67,2.2,-999.0,84,-99.99,,,0.00,Acu-Link.com,2013-10-16 04:16:00,
2013-10-16 00:31:00,81.3,76.0,29.90,SSW,202,1.6,-999.0,84,-99.99,,,0.00,Acu-Link.com,2013-10-16 04:31:00,
2013-10-16 00:46:00,81.1,76.2,29.90,WSW,247,2.2,-999.0,85,-99.99,,,0.00,Acu-Link.com,2013-10-16 04:46:00,
2013-10-16 01:01:00,81.1,76.2,29.89,SSW,202,2.2,-999.0,85,-99.99,,,0.00,Acu-Link.com,2013-10-16 05:01:00,
2013-10-16 01:17:00,81.0,76.0,29.89,SSW,202,3.1,-999.0,85,-99.99,,,0.00,Acu-Link.com,2013-10-16 05:17:00,
2013-10-16 01:32:00,80.8,75.8,29.88,South,180,2.7,-999.0,85,-99.99,,,0.00,Acu-Link.com,2013-10-16 05:32:00,
2013-10-16 01:49:00,80.8,75.8,29.88,SSE,157,2.7,-999.0,85,-99.99,,,0.00,Acu-Link.com,2013-10-16 05:49:00,
2013-10-16 02:04:00,80.8,75.8,29.87,SSE,157,3.8,-999.0,85,-99.99,,,0.00,Acu-Link.com,2013-10-16 06:04:00,
2013-10-16 02:19:00,80.2,75.7,29.87,SE,135,3.1,-999.0,86,-99.99,,,0.00,Acu-Link.com,2013-10-16 06:19:00,
2013-10-16 02:35:00,80.1,75.5,29.87,WNW,292,1.6,-999.0,86,-99.99,,,0.00,Acu-Link.com,2013-10-16 06:35:00,
2013-10-16 02:50:00,79.9,75.7,29.86,South,180,1.6,-999.0,87,-99.99,,,0.00,Acu-Link.com,2013-10-16 06:50:00,
2013-10-16 03:07:00,79.7,75.5,29.86,SE,135,2.2,-999.0,87,-99.99,,,0.00,Acu-Link.com,2013-10-16 07:07:00,
2013-10-16 03:22:00,79.3,75.5,29.85,ESE,112,1.6,-999.0,88,-99.99,,,0.00,Acu-Link.com,2013-10-16 07:22:00,
2013-10-16 03:37:00,79.0,75.1,29.85,SE,135,2.2,-999.0,88,-99.99,,,0.00,Acu-Link.com,2013-10-16 07:37:00,
2013-10-16 03:53:00,79.2,75.3,29.85,SE,135,3.8,-999.0,88,-99.99,,,0.00,Acu-Link.com,2013-10-16 07:53:00,
2013-10-16 04:08:00,79.2,74.9,29.84,SSE,157,4.7,-999.0,87,-99.99,,,0.00,Acu-Link.com,2013-10-16 08:08:00,
2013-10-16 04:24:00,78.8,74.9,29.85,South,180,4.3,-999.0,88,-99.99,,,0.00,Acu-Link.com,2013-10-16 08:24:00,
2013-10-16 04:39:00,78.6,74.8,29.84,South,180,3.8,-999.0,88,-99.99,,,0.00,Acu-Link.com,2013-10-16 08:39:00,
2013-10-16 04:54:00,78.4,74.6,29.85,South,180,3.1,-999.0,88,-99.99,,,0.00,Acu-Link.com,2013-10-16 08:54:00,
2013-10-16 05:09:00,77.9,74.0,29.87,WSW,247,2.7,-999.0,88,-99.99,,,0.00,Acu-Link.com,2013-10-16 09:09:00,
2013-10-16 05:25:00,77.5,74.0,29.87,WSW,247,1.6,-999.0,89,-99.99,,,0.00,Acu-Link.com,2013-10-16 09:25:00,
2013-10-16 05:40:00,77.9,74.0,29.87,South,180,0.0,-999.0,88,-99.99,,,0.00,Acu-Link.com,2013-10-16 09:40:00,
2013-10-16 05:55:00,77.7,73.9,29.87,East,90,2.2,-999.0,88,-99.99,,,0.00,Acu-Link.com,2013-10-16 09:55:00,
2013-10-16 06:10:00,77.4,73.9,29.87,WSW,247,2.2,-999.0,89,-99.99,,,0.00,Acu-Link.com,2013-10-16 10:10:00,
2013-10-16 06:25:00,77.5,74.4,29.88,West,270,2.2,-999.0,90,-99.99,,,0.00,Acu-Link.com,2013-10-16 10:25:00,
2013-10-16 06:41:00,77.5,74.0,29.88,SW,225,2.2,-999.0,89,-99.99,,,0.00,Acu-Link.com,2013-10-16 10:41:00,
2013-10-16 06:56:00,78.3,74.1,29.87,SSW,202,0.0,-999.0,87,-99.99,,,0.00,Acu-Link.com,2013-10-16 10:56:00,
2013-10-16 07:11:00,79.2,74.2,29.88,SW,225,1.6,-999.0,85,-99.99,,,0.00,Acu-Link.com,2013-10-16 11:11:00,
2013-10-16 07:26:00,80.8,74.8,29.88,SW,225,2.2,-999.0,82,-99.99,,,0.00,Acu-Link.com,2013-10-16 11:26:00,
2013-10-16 07:41:00,81.5,75.1,29.87,SSW,202,2.2,-999.0,81,-99.99,,,0.00,Acu-Link.com,2013-10-16 11:41:00,
2013-10-16 07:57:00,81.7,75.3,29.88,WSW,247,3.1,-999.0,81,-99.99,,,0.00,Acu-Link.com,2013-10-16 11:57:00,
2013-10-16 08:12:00,83.3,76.1,29.88,SE,135,3.8,-999.0,79,-99.99,,,0.00,Acu-Link.com,2013-10-16 12:12:00,
2013-10-16 08:27:00,84.0,76.0,29.88,SSW,202,3.8,-999.0,77,-99.99,,,0.00,Acu-Link.com,2013-10-16 12:27:00,
2013-10-16 08:42:00,84.7,76.3,29.88,South,180,5.1,-999.0,76,-99.99,,,0.00,Acu-Link.com,2013-10-16 12:42:00,
2013-10-16 08:58:00,85.8,76.5,29.88,ESE,112,3.8,-999.0,74,-99.99,,,0.00,Acu-Link.com,2013-10-16 12:58:00,
2013-10-16 09:13:00,86.5,76.4,29.89,ESE,112,5.1,-999.0,72,-99.99,,,0.00,Acu-Link.com,2013-10-16 13:13:00,
2013-10-16 09:28:00,86.9,75.9,29.89,ESE,112,7.4,-999.0,70,-99.99,,,0.00,Acu-Link.com,2013-10-16 13:28:00,
2013-10-16 09:43:00,87.3,76.3,29.90,SSE,157,7.4,-999.0,70,-99.99,,,0.00,Acu-Link.com,2013-10-16 13:43:00,
2013-10-16 09:58:00,88.0,75.6,29.90,South,180,7.4,-999.0,67,-99.99,,,0.00,Acu-Link.com,2013-10-16 13:58:00,
2013-10-16 10:14:00,89.1,75.7,29.89,West,270,7.4,-999.0,65,-99.99,,,0.00,Acu-Link.com,2013-10-16 14:14:00,
2013-10-16 10:29:00,89.2,75.0,29.89,SW,225,5.1,-999.0,63,-99.99,,,0.00,Acu-Link.com,2013-10-16 14:29:00,
2013-10-16 10:44:00,90.5,75.7,29.89,SSW,202,5.8,-999.0,62,-99.99,,,0.00,Acu-Link.com,2013-10-16 14:44:00,
2013-10-16 10:59:00,90.5,74.7,29.88,SSW,202,7.4,-999.0,60,-99.99,,,0.00,Acu-Link.com,2013-10-16 14:59:00,
2013-10-16 11:14:00,91.4,74.0,29.87,SE,135,4.7,-999.0,57,-99.99,,,0.00,Acu-Link.com,2013-10-16 15:14:00,
2013-10-16 11:30:00,91.6,74.2,29.87,South,180,3.8,-999.0,57,-99.99,,,0.00,Acu-Link.com,2013-10-16 15:30:00,
2013-10-16 11:45:00,91.8,73.8,29.86,ESE,112,2.7,-999.0,56,-99.99,,,0.00,Acu-Link.com,2013-10-16 15:45:00,
2013-10-16 12:00:00,92.1,74.1,29.86,ESE,112,6.3,-999.0,56,-99.99,,,0.00,Acu-Link.com,2013-10-16 16:00:00,
2013-10-16 12:15:00,92.8,74.3,29.85,NW,315,1.6,-999.0,55,-99.99,,,0.00,Acu-Link.com,2013-10-16 16:15:00,
2013-10-16 12:30:00,93.4,74.8,29.84,ESE,112,6.3,-999.0,55,-99.99,,,0.00,Acu-Link.com,2013-10-16 16:30:00,
2013-10-16 12:46:00,94.6,74.8,29.84,ESE,112,6.7,-999.0,53,-99.99,,,0.00,Acu-Link.com,2013-10-16 16:46:00,
2013-10-16 13:01:00,94.3,73.9,29.83,South,180,4.7,-999.0,52,-99.99,,,0.00,Acu-Link.com,2013-10-16 17:01:00,
2013-10-16 13:16:00,94.3,73.9,29.82,East,90,2.7,-999.0,52,-99.99,,,0.00,Acu-Link.com,2013-10-16 17:16:00,
2013-10-16 13:31:00,91.9,76.5,29.82,ESE,112,11.0,-999.0,61,-99.99,,,0.00,Acu-Link.com,2013-10-16 17:31:00,
2013-10-16 13:47:00,90.9,76.5,29.81,East,90,14.1,-999.0,63,-99.99,,,0.00,Acu-Link.com,2013-10-16 17:47:00,
2013-10-16 14:02:00,90.1,76.8,29.81,ESE,112,8.3,-999.0,65,-99.99,,,0.00,Acu-Link.com,2013-10-16 18:02:00,
2013-10-16 14:17:00,91.0,76.2,29.80,SSE,157,6.7,-999.0,62,-99.99,,,0.00,Acu-Link.com,2013-10-16 18:17:00,
2013-10-16 14:32:00,90.9,76.0,29.80,ESE,112,10.3,-999.0,62,-99.99,,,0.00,Acu-Link.com,2013-10-16 18:32:00,
2013-10-16 14:47:00,90.3,75.5,29.79,ESE,112,11.9,-999.0,62,-99.99,,,0.00,Acu-Link.com,2013-10-16 18:47:00,
2013-10-16 15:03:00,88.3,75.0,29.79,NE,45,7.4,-999.0,65,-99.99,,,0.00,Acu-Link.com,2013-10-16 19:03:00,
2013-10-16 15:18:00,87.1,75.2,29.79,East,90,9.8,-999.0,68,-99.99,,,0.00,Acu-Link.com,2013-10-16 19:18:00,
2013-10-16 15:33:00,86.7,75.3,29.80,East,90,8.9,-999.0,69,-99.99,,,0.00,Acu-Link.com,2013-10-16 19:33:00,
2013-10-16 15:48:00,86.4,75.0,29.80,SE,135,6.3,-999.0,69,-99.99,,,0.00,Acu-Link.com,2013-10-16 19:48:00,
2013-10-16 16:03:00,86.4,75.0,29.80,ENE,67,6.3,-999.0,69,-99.99,,,0.00,Acu-Link.com,2013-10-16 20:03:00,
2013-10-16 16:19:00,86.4,75.0,29.81,ENE,67,3.1,-999.0,69,-99.99,,,0.00,Acu-Link.com,2013-10-16 20:19:00,
2013-10-16 16:34:00,86.0,75.0,29.81,ENE,67,3.1,-999.0,70,-99.99,,,0.00,Acu-Link.com,2013-10-16 20:34:00,
2013-10-16 16:49:00,84.9,73.6,29.80,NNW,337,5.1,-999.0,69,-99.99,,,0.00,Acu-Link.com,2013-10-16 20:49:00,
2013-10-16 17:04:00,83.1,72.3,29.82,SW,225,5.1,-999.0,70,-99.99,,,0.00,Acu-Link.com,2013-10-16 21:04:00,
2013-10-16 17:19:00,84.2,72.0,29.83,NNW,337,2.7,-999.0,67,-99.99,,,0.00,Acu-Link.com,2013-10-16 21:19:00,
2013-10-16 17:34:00,85.1,72.0,29.82,NW,315,0.0,-999.0,65,-99.99,,,0.00,Acu-Link.com,2013-10-16 21:34:00,
2013-10-16 17:50:00,83.1,71.0,29.83,WNW,292,5.8,-999.0,67,-99.99,,,0.00,Acu-Link.com,2013-10-16 21:50:00,
2013-10-16 18:05:00,82.0,71.3,29.83,NW,315,2.7,-999.0,70,-99.99,,,0.00,Acu-Link.com,2013-10-16 22:05:00,
2013-10-16 18:20:00,82.8,72.4,29.83,West,270,2.2,-999.0,71,-99.99,,,0.00,Acu-Link.com,2013-10-16 22:20:00,
2013-10-16 18:35:00,82.8,72.4,29.84,WNW,292,2.2,-999.0,71,-99.99,,,0.00,Acu-Link.com,2013-10-16 22:35:00,
2013-10-16 18:50:00,82.8,72.4,29.85,West,270,0.0,-999.0,71,-99.99,,,0.00,Acu-Link.com,2013-10-16 22:50:00,
2013-10-16 19:06:00,81.3,72.2,29.85,NW,315,3.8,-999.0,74,-99.99,,,0.00,Acu-Link.com,2013-10-16 23:06:00,
2013-10-16 19:21:00,81.5,72.4,29.86,WSW,247,1.1,-999.0,74,-99.99,,,0.00,Acu-Link.com,2013-10-16 23:21:00,
2013-10-16 19:36:00,81.5,72.4,29.86,West,270,2.2,-999.0,74,-99.99,,,0.00,Acu-Link.com,2013-10-16 23:36:00,
2013-10-16 19:51:00,81.3,72.6,29.87,WSW,247,2.7,-999.0,75,-99.99,,,0.00,Acu-Link.com,2013-10-16 23:51:00,
2013-10-16 20:07:00,81.9,73.1,29.87,East,90,0.0,-999.0,75,-99.99,,,0.00,Acu-Link.com,2013-10-17 00:07:00,
2013-10-16 20:22:00,82.4,72.9,29.87,WSW,247,0.0,-999.0,73,-99.99,,,0.00,Acu-Link.com,2013-10-17 00:22:00,
2013-10-16 20:37:00,82.0,72.1,29.87,SSE,157,1.6,-999.0,72,-99.99,,,0.00,Acu-Link.com,2013-10-17 00:37:00,
2013-10-16 20:52:00,82.0,72.5,29.89,NW,315,1.6,-999.0,73,-99.99,,,0.00,Acu-Link.com,2013-10-17 00:52:00,
2013-10-16 21:07:00,82.0,72.5,29.89,SE,135,2.7,-999.0,73,-99.99,,,0.00,Acu-Link.com,2013-10-17 01:07:00,
2013-10-16 21:23:00,80.8,72.5,29.89,WNW,292,2.2,-999.0,76,-99.99,,,0.00,Acu-Link.com,2013-10-17 01:23:00,
2013-10-16 21:38:00,79.7,72.6,29.89,WSW,247,1.6,-999.0,79,-99.99,,,0.00,Acu-Link.com,2013-10-17 01:38:00,
2013-10-16 21:53:00,79.2,72.8,29.90,West,270,2.7,-999.0,81,-99.99,,,0.00,Acu-Link.com,2013-10-17 01:53:00,
2013-10-16 22:08:00,79.2,72.8,29.90,SW,225,1.6,-999.0,81,-99.99,,,0.00,Acu-Link.com,2013-10-17 02:08:00,
2013-10-16 22:23:00,79.3,73.0,29.90,WSW,247,1.6,-999.0,81,-99.99,,,0.00,Acu-Link.com,2013-10-17 02:23:00,
2013-10-16 22:39:00,78.8,72.5,29.90,West,270,2.2,-999.0,81,-99.99,,,0.00,Acu-Link.com,2013-10-17 02:39:00,
2013-10-16 22:54:00,79.3,72.6,29.90,West,270,2.2,-999.0,80,-99.99,,,0.00,Acu-Link.com,2013-10-17 02:54:00,
2013-10-16 23:09:00,79.2,72.4,29.90,WSW,247,2.2,-999.0,80,-99.99,,,0.00,Acu-Link.com,2013-10-17 03:09:00,
2013-10-16 23:24:00,79.0,72.3,29.90,West,270,2.2,-999.0,80,-99.99,,,0.00,Acu-Link.com,2013-10-17 03:24:00,
2013-10-16 23:39:00,78.4,72.1,29.90,West,270,2.2,-999.0,81,-99.99,,,0.00,Acu-Link.com,2013-10-17 03:39:00,
2013-10-16 23:55:00,78.3,71.9,29.90,South,180,1.1,-999.0,81,-99.99,,,0.00,Acu-Link.com,2013-10-17 03:55:00,